Time;durP1;ratioP1;P1;durP2;ratioP2;P2;SDS_P1;SDS_P2;PMS_P1;PMS_P2;Temp;Humidity;BMP_temperature;BMP_pressure;BME280_temperature;BME280_humidity;BME280_pressure;Samples;Min_cycle;Max_cycle;Signal;HPM_P1;HPM_P2
2021/05/25 00:00:27;;;;;;;9.30;3.93;;;9.70;99.90;;;;;;5016743;28;20206;-80
2021/05/25 00:02:54;;;;;;;9.17;4.03;;;9.70;99.90;;;;;;5017390;28;20189;-79
2021/05/25 00:05:30;;;;;;;6.33;3.83;;;9.60;99.90;;;;;;5016728;28;20700;-80
2021/05/25 00:07:56;;;;;;;6.27;3.80;;;9.70;99.80;;;;;;5016745;28;20653;-79
2021/05/25 00:10:29;;;;;;;8.73;4.97;;;9.70;99.90;;;;;;5016758;28;20289;-80
2021/05/25 00:12:59;;;;;;;6.63;4.37;;;9.70;99.90;;;;;;5016701;28;20190;-80
2021/05/25 00:15:26;;;;;;;7.90;4.27;;;9.60;99.90;;;;;;5016651;28;20274;-82
2021/05/25 00:17:52;;;;;;;7.40;4.13;;;9.50;99.90;;;;;;5014457;28;20265;-79
2021/05/25 00:20:20;;;;;;;6.77;4.20;;;9.50;99.90;;;;;;5005580;28;20459;-79
2021/05/25 00:22:46;;;;;;;6.20;3.70;;;9.40;99.90;;;;;;5016355;28;20262;-80
2021/05/25 00:25:15;;;;;;;7.23;3.70;;;9.40;99.90;;;;;;5016504;28;20249;-80
2021/05/25 00:27:42;;;;;;;6.20;3.50;;;9.50;99.90;;;;;;5016328;28;20192;-79
2021/05/25 00:30:09;;;;;;;6.07;3.30;;;9.60;99.90;;;;;;5015552;28;20187;-80
2021/05/25 00:32:35;;;;;;;7.33;2.80;;;9.40;99.90;;;;;;5016772;28;20262;-80
2021/05/25 00:35:02;;;;;;;6.20;2.83;;;9.40;99.90;;;;;;5016445;28;20249;-79
2021/05/25 00:37:28;;;;;;;5.63;3.30;;;9.40;99.90;;;;;;5015901;28;20747;-79
2021/05/25 00:39:54;;;;;;;5.70;2.30;;;9.30;99.90;;;;;;5015016;28;20218;-80
2021/05/25 00:42:19;;;;;;;4.37;2.23;;;9.50;99.90;;;;;;5010853;28;20197;-79
2021/05/25 00:44:45;;;;;;;3.83;2.03;;;9.30;99.90;;;;;;5015946;28;20604;-79
2021/05/25 00:47:11;;;;;;;5.23;2.07;;;9.30;99.90;;;;;;5016106;28;20189;-80
2021/05/25 00:49:36;;;;;;;3.80;2.40;;;9.30;99.90;;;;;;5014718;28;20269;-78
2021/05/25 00:52:02;;;;;;;4.77;2.27;;;9.30;99.90;;;;;;5015906;28;20178;-80
2021/05/25 00:54:28;;;;;;;6.07;2.00;;;9.30;99.90;;;;;;5016243;28;20178;-79
2021/05/25 00:56:55;;;;;;;4.37;1.67;;;9.30;99.90;;;;;;5016481;28;20187;-79
2021/05/25 00:59:21;;;;;;;5.40;1.87;;;9.30;99.90;;;;;;5016766;28;20666;-79
2021/05/25 01:01:47;;;;;;;3.67;1.57;;;9.30;99.90;;;;;;5016141;28;20174;-80
2021/05/25 01:04:12;;;;;;;3.20;1.87;;;9.30;99.90;;;;;;5015660;28;20170;-79
2021/05/25 01:06:38;;;;;;;4.17;1.70;;;9.30;99.90;;;;;;5015571;28;20256;-80
2021/05/25 01:09:04;;;;;;;2.70;1.43;;;9.40;99.90;;;;;;5015552;28;20253;-79
2021/05/25 01:11:35;;;;;;;4.17;1.70;;;9.50;99.90;;;;;;5015824;28;20198;-79
2021/05/25 01:14:02;;;;;;;2.87;1.50;;;9.50;99.90;;;;;;5015511;28;20202;-79
2021/05/25 01:16:28;;;;;;;3.87;1.40;;;9.40;99.90;;;;;;5015642;28;20586;-80
2021/05/25 01:18:55;;;;;;;4.10;1.57;;;9.50;99.90;;;;;;5015736;28;20170;-79
2021/05/25 01:21:22;;;;;;;4.10;1.60;;;9.40;99.90;;;;;;5015063;28;20171;-80
2021/05/25 01:23:48;;;;;;;4.03;1.53;;;9.40;99.90;;;;;;5015315;28;20205;-80
2021/05/25 01:26:15;;;;;;;3.07;1.67;;;9.30;99.90;;;;;;5015409;28;20529;-79
2021/05/25 01:28:42;;;;;;;3.70;1.77;;;9.30;99.90;;;;;;5015446;28;20642;-80
2021/05/25 01:31:08;;;;;;;3.80;1.40;;;9.40;99.90;;;;;;5018938;28;20174;-80
2021/05/25 01:33:38;;;;;;;3.97;1.80;;;9.50;99.90;;;;;;5039835;28;20190;-79
2021/05/25 01:36:07;;;;;;;3.73;1.50;;;9.60;99.90;;;;;;5028432;28;20174;-80
2021/05/25 01:38:33;;;;;;;2.47;1.27;;;9.60;99.90;;;;;;5016272;28;20194;-79
2021/05/25 01:40:59;;;;;;;3.70;1.50;;;9.50;99.90;;;;;;5015730;28;20304;-79
2021/05/25 01:43:25;;;;;;;4.10;1.70;;;9.60;99.90;;;;;;5014050;28;20178;-80
2021/05/25 01:45:51;;;;;;;3.07;1.50;;;9.40;99.90;;;;;;5015385;28;20541;-80
2021/05/25 01:48:17;;;;;;;3.97;1.20;;;9.40;99.90;;;;;;5015263;28;20245;-80
2021/05/25 01:50:42;;;;;;;2.60;1.40;;;9.40;99.90;;;;;;5014925;28;20170;-79
2021/05/25 01:53:20;;;;;;;4.67;1.50;;;9.40;99.90;;;;;;5015028;28;20640;-79
2021/05/25 01:55:49;;;;;;;4.67;1.67;;;9.40;99.90;;;;;;5015835;28;20633;-79
2021/05/25 01:58:19;;;;;;;4.07;1.57;;;9.40;99.90;;;;;;5029124;28;20162;-78
2021/05/25 02:00:47;;;;;;;5.67;1.53;;;9.40;99.90;;;;;;5038787;28;20210;-79
2021/05/25 02:03:13;;;;;;;3.10;1.50;;;9.40;99.90;;;;;;5029616;28;20205;-80
2021/05/25 02:05:40;;;;;;;4.13;1.50;;;9.50;99.90;;;;;;5015718;28;20182;-81
2021/05/25 02:08:07;;;;;;;3.13;1.70;;;9.60;99.90;;;;;;5015721;28;20605;-80
2021/05/25 02:10:37;;;;;;;2.90;1.60;;;9.60;99.90;;;;;;5015962;28;20264;-80
2021/05/25 02:13:12;;;;;;;4.00;1.53;;;9.60;99.90;;;;;;5014752;28;20185;-80
2021/05/25 02:15:39;;;;;;;5.03;1.73;;;9.60;99.90;;;;;;5014524;28;20177;-79
2021/05/25 02:18:11;;;;;;;5.07;1.90;;;9.60;99.90;;;;;;5013570;28;20166;-80
2021/05/25 02:20:38;;;;;;;5.70;2.03;;;9.60;99.90;;;;;;5014305;28;20213;-80
2021/05/25 02:23:04;;;;;;;3.73;2.20;;;9.70;99.90;;;;;;5014347;28;20221;-80
2021/05/25 02:25:31;;;;;;;4.73;2.00;;;9.80;99.90;;;;;;5014862;28;20189;-80
2021/05/25 02:27:57;;;;;;;4.23;1.90;;;9.60;99.90;;;;;;5014207;28;20256;-80
2021/05/25 02:30:23;;;;;;;4.03;1.70;;;9.70;99.90;;;;;;5014291;28;20197;-80
2021/05/25 02:32:49;;;;;;;6.50;2.33;;;9.70;99.90;;;;;;5014092;28;20653;-79
2021/05/25 02:35:15;;;;;;;3.03;2.00;;;9.70;99.90;;;;;;5014306;28;20249;-80
2021/05/25 02:37:41;;;;;;;7.07;2.73;;;10.00;99.90;;;;;;5013088;28;20210;-79
2021/05/25 02:40:08;;;;;;;4.00;2.20;;;9.70;99.90;;;;;;5013985;28;20313;-80
2021/05/25 02:42:34;;;;;;;4.10;2.40;;;9.70;99.90;;;;;;5014193;28;20224;-80
2021/05/25 02:45:00;;;;;;;4.03;2.40;;;9.80;99.90;;;;;;5014041;28;20170;-79
2021/05/25 02:47:25;;;;;;;4.33;2.23;;;9.80;99.90;;;;;;5013813;28;20170;-82
2021/05/25 02:49:51;;;;;;;6.10;2.30;;;9.70;99.90;;;;;;5013963;28;20174;-80
2021/05/25 02:52:17;;;;;;;5.33;2.70;;;9.70;99.90;;;;;;5013957;28;20166;-79
2021/05/25 02:54:43;;;;;;;5.10;3.13;;;9.70;99.90;;;;;;5013821;28;20241;-80
2021/05/25 02:57:08;;;;;;;4.67;2.63;;;9.70;99.90;;;;;;5013849;28;20174;-80
2021/05/25 02:59:35;;;;;;;5.50;3.00;;;9.70;99.90;;;;;;5013811;28;20301;-80
2021/05/25 03:02:01;;;;;;;6.90;2.77;;;9.70;99.90;;;;;;5013688;28;20240;-83
2021/05/25 03:04:26;;;;;;;5.17;2.67;;;9.80;99.90;;;;;;5013539;28;20175;-80
2021/05/25 03:06:52;;;;;;;5.47;3.30;;;9.80;99.90;;;;;;5014056;28;20635;-84
2021/05/25 03:09:18;;;;;;;5.40;3.10;;;9.80;99.90;;;;;;5012463;28;20533;-80
2021/05/25 03:11:44;;;;;;;7.03;3.50;;;9.70;99.90;;;;;;5013611;28;20202;-79
2021/05/25 03:14:10;;;;;;;4.47;2.87;;;9.70;99.90;;;;;;5013747;28;20262;-80
2021/05/25 03:16:36;;;;;;;7.43;3.90;;;9.70;99.90;;;;;;5013793;28;20162;-79
2021/05/25 03:19:03;;;;;;;5.83;3.10;;;9.70;99.90;;;;;;5012082;28;20178;-80
2021/05/25 03:21:28;;;;;;;6.17;3.83;;;9.70;99.90;;;;;;5013607;28;20192;-80
2021/05/25 03:23:54;;;;;;;10.20;4.50;;;9.60;99.90;;;;;;5013341;28;20249;-80
2021/05/25 03:26:21;;;;;;;6.73;4.33;;;9.60;99.90;;;;;;5013221;28;20174;-80
2021/05/25 03:28:48;;;;;;;7.43;4.00;;;9.60;99.90;;;;;;5013715;28;20225;-80
2021/05/25 03:31:14;;;;;;;6.40;4.20;;;9.70;99.90;;;;;;5016344;28;20162;-80
2021/05/25 03:33:40;;;;;;;8.10;4.03;;;9.60;99.90;;;;;;5016431;28;20638;-80
2021/05/25 03:36:05;;;;;;;4.63;4.10;;;9.80;99.90;;;;;;5018406;28;20245;-80
2021/05/25 03:38:31;;;;;;;6.67;3.77;;;9.70;99.90;;;;;;5018116;28;20642;-80
2021/05/25 03:40:57;;;;;;;5.43;3.90;;;9.80;99.90;;;;;;5017896;28;20205;-80
2021/05/25 03:43:23;;;;;;;6.33;3.70;;;9.70;99.90;;;;;;5017438;28;20181;-82
2021/05/25 03:45:48;;;;;;;6.77;3.80;;;9.60;99.90;;;;;;5017554;28;20198;-80
2021/05/25 03:48:16;;;;;;;6.27;3.93;;;9.60;99.90;;;;;;5017446;28;20173;-80
2021/05/25 03:50:43;;;;;;;6.83;4.07;;;9.70;99.90;;;;;;5017419;28;20225;-81
2021/05/25 03:53:09;;;;;;;6.80;5.07;;;9.60;99.90;;;;;;5017444;28;20174;-81
2021/05/25 03:55:47;;;;;;;8.57;4.50;;;9.50;99.90;;;;;;5017382;28;20166;-81
2021/05/25 04:00:57;;;;;;;5.57;4.03;;;9.60;99.90;;;;;;5016835;28;20920;-80
2021/05/25 04:03:24;;;;;;;5.77;4.20;;;9.50;99.90;;;;;;5016788;28;20170;-81
2021/05/25 04:05:50;;;;;;;5.90;4.40;;;9.60;99.90;;;;;;5017427;28;20517;-80
2021/05/25 04:08:17;;;;;;;7.07;4.83;;;9.60;99.90;;;;;;5017183;28;20181;-80
2021/05/25 04:10:45;;;;;;;7.83;5.53;;;9.60;99.90;;;;;;5016596;28;20281;-80
2021/05/25 04:13:11;;;;;;;5.73;4.80;;;9.60;99.90;;;;;;5016366;28;20249;-80
2021/05/25 04:15:41;;;;;;;6.70;4.43;;;9.60;99.90;;;;;;5015813;28;20258;-80
2021/05/25 04:18:07;;;;;;;8.97;5.63;;;9.50;99.90;;;;;;5015299;28;20170;-80
2021/05/25 04:20:32;;;;;;;6.60;5.07;;;9.60;99.90;;;;;;5016525;28;20209;-79
2021/05/25 04:22:58;;;;;;;5.10;4.60;;;9.60;99.90;;;;;;5016718;28;20340;-80
2021/05/25 04:25:25;;;;;;;5.83;4.83;;;9.50;99.90;;;;;;5016675;28;20229;-79
2021/05/25 04:27:51;;;;;;;6.93;4.70;;;9.50;99.90;;;;;;5016210;28;20182;-80
2021/05/25 04:30:17;;;;;;;7.20;5.20;;;9.80;99.90;;;;;;5016473;28;20177;-79
2021/05/25 04:32:43;;;;;;;7.27;5.17;;;9.70;99.90;;;;;;5016551;28;20645;-79
2021/05/25 04:35:09;;;;;;;9.10;5.43;;;9.70;99.90;;;;;;5015005;28;20213;-80
2021/05/25 04:37:35;;;;;;;6.40;5.57;;;9.60;99.90;;;;;;5016070;28;20178;-80
2021/05/25 04:40:01;;;;;;;6.83;6.10;;;9.60;99.90;;;;;;5016582;28;20216;-79
2021/05/25 04:42:27;;;;;;;7.70;6.63;;;9.70;99.90;;;;;;5013896;28;20190;-79
2021/05/25 04:44:53;;;;;;;9.47;6.73;;;9.80;99.90;;;;;;5016868;28;20173;-79
2021/05/25 04:47:20;;;;;;;8.43;7.13;;;9.70;99.90;;;;;;5017323;28;20253;-80
2021/05/25 04:49:45;;;;;;;8.97;7.37;;;10.00;99.90;;;;;;5016882;28;20162;-79
2021/05/25 04:52:11;;;;;;;9.00;7.63;;;9.70;99.90;;;;;;5016775;28;20656;-80
2021/05/25 04:54:37;;;;;;;8.63;7.83;;;9.90;99.90;;;;;;5016410;28;20649;-80
2021/05/25 04:57:02;;;;;;;8.73;7.83;;;9.80;99.90;;;;;;5015740;28;20166;-80
2021/05/25 04:59:28;;;;;;;10.00;7.80;;;9.80;99.90;;;;;;5015879;28;20196;-79
2021/05/25 05:01:54;;;;;;;10.03;8.27;;;9.80;99.90;;;;;;5015877;28;20174;-80
2021/05/25 05:04:19;;;;;;;9.73;8.57;;;9.90;99.90;;;;;;5015568;28;20162;-80
2021/05/25 05:06:45;;;;;;;11.07;8.40;;;9.90;99.90;;;;;;5015570;28;20170;-80
2021/05/25 05:09:11;;;;;;;10.70;9.07;;;9.90;99.90;;;;;;5015927;28;20262;-79
2021/05/25 05:11:36;;;;;;;12.67;9.47;;;9.90;99.90;;;;;;5014978;28;20212;-79
2021/05/25 05:14:02;;;;;;;11.77;9.17;;;9.90;99.90;;;;;;5014685;28;20171;-82
2021/05/25 05:16:28;;;;;;;10.30;9.10;;;9.90;99.90;;;;;;5021426;28;20170;-79
2021/05/25 05:18:53;;;;;;;14.97;10.17;;;9.90;99.90;;;;;;5029116;28;20173;-79
2021/05/25 05:21:19;;;;;;;13.13;9.00;;;10.00;99.90;;;;;;5017742;28;20244;-79
2021/05/25 05:23:45;;;;;;;11.40;9.77;;;10.00;99.90;;;;;;5015422;28;20242;-79
2021/05/25 05:26:12;;;;;;;10.13;8.97;;;10.10;99.90;;;;;;5014881;28;20185;-79
2021/05/25 05:28:40;;;;;;;12.93;10.03;;;10.10;99.90;;;;;;5015400;28;20265;-79
2021/05/25 05:31:05;;;;;;;10.00;9.00;;;10.10;99.90;;;;;;5015407;28;20166;-79
2021/05/25 05:33:31;;;;;;;11.47;9.80;;;10.10;99.90;;;;;;5014946;28;20181;-79
2021/05/25 05:35:57;;;;;;;12.27;10.00;;;10.10;99.90;;;;;;5015418;28;20676;-79
2021/05/25 05:38:23;;;;;;;11.60;9.87;;;10.20;99.90;;;;;;5016071;28;20194;-80
2021/05/25 05:40:50;;;;;;;9.83;8.83;;;10.20;99.90;;;;;;5013950;28;20299;-78
2021/05/25 05:43:18;;;;;;;10.07;7.80;;;10.20;99.90;;;;;;5005974;28;20181;-77
2021/05/25 05:45:44;;;;;;;12.53;7.77;;;10.20;99.90;;;;;;5008508;28;20178;-77
2021/05/25 05:48:09;;;;;;;9.53;8.07;;;10.20;99.90;;;;;;4998304;28;20589;-82
2021/05/25 05:50:35;;;;;;;8.80;7.33;;;10.20;99.90;;;;;;4997820;28;20179;-84
2021/05/25 05:53:01;;;;;;;8.47;6.67;;;10.20;99.90;;;;;;4995259;28;20186;-81
2021/05/25 05:55:27;;;;;;;7.50;6.30;;;10.20;99.90;;;;;;5008068;28;20181;-85
2021/05/25 05:57:53;;;;;;;5.40;4.90;;;10.10;99.90;;;;;;5016760;28;20635;-80
2021/05/25 06:00:20;;;;;;;8.73;5.63;;;10.10;99.90;;;;;;5008136;28;20207;-79
2021/05/25 06:02:46;;;;;;;5.80;4.83;;;10.10;99.90;;;;;;4994859;28;20175;-79
2021/05/25 06:05:12;;;;;;;6.50;4.60;;;10.20;99.90;;;;;;4997476;28;20537;-79
2021/05/25 06:07:37;;;;;;;6.67;4.27;;;10.10;99.90;;;;;;4996470;28;20262;-79
2021/05/25 06:10:05;;;;;;;5.80;4.20;;;10.10;99.90;;;;;;5002407;28;20189;-80
2021/05/25 06:12:31;;;;;;;4.40;3.77;;;10.10;99.90;;;;;;5006559;28;20635;-78
2021/05/25 06:14:57;;;;;;;5.73;4.40;;;10.10;99.90;;;;;;4995302;28;20189;-80
2021/05/25 06:17:22;;;;;;;4.73;3.90;;;10.10;99.90;;;;;;4994907;28;20175;-80
2021/05/25 06:19:48;;;;;;;5.40;4.03;;;10.10;99.90;;;;;;4994894;28;20202;-79
2021/05/25 06:22:14;;;;;;;8.33;4.20;;;10.10;99.90;;;;;;4997425;28;20262;-80
2021/05/25 06:24:39;;;;;;;6.70;4.40;;;10.20;99.90;;;;;;5003647;28;20175;-79
2021/05/25 06:27:05;;;;;;;4.10;3.70;;;10.20;99.90;;;;;;5011686;28;20190;-79
2021/05/25 06:29:31;;;;;;;4.70;4.20;;;10.10;99.90;;;;;;5013790;28;20178;-79
2021/05/25 06:32:00;;;;;;;5.40;3.63;;;10.20;99.90;;;;;;4996228;28;20262;-80
2021/05/25 06:34:26;;;;;;;4.43;2.67;;;10.20;99.90;;;;;;4994563;28;20169;-79
2021/05/25 06:36:52;;;;;;;4.50;3.70;;;10.00;99.90;;;;;;4994606;28;20235;-80
2021/05/25 06:39:18;;;;;;;5.07;3.90;;;9.90;99.90;;;;;;5000461;28;20245;-78
2021/05/25 06:41:44;;;;;;;6.43;4.20;;;9.90;99.90;;;;;;5012523;28;20186;-78
2021/05/25 06:44:11;;;;;;;5.50;4.97;;;9.90;99.90;;;;;;5013501;28;20293;-78
2021/05/25 06:46:37;;;;;;;6.87;5.80;;;10.00;99.90;;;;;;5013605;28;20174;-78
2021/05/25 06:49:03;;;;;;;7.37;5.47;;;10.00;99.90;;;;;;5013186;28;20539;-79
2021/05/25 06:51:28;;;;;;;7.97;5.73;;;10.10;99.90;;;;;;5013507;28;20265;-79
2021/05/25 06:53:55;;;;;;;8.47;5.60;;;10.10;99.90;;;;;;5013858;28;20214;-78
2021/05/25 06:56:20;;;;;;;6.53;4.50;;;10.20;99.90;;;;;;5013785;28;20178;-79
2021/05/25 06:58:46;;;;;;;4.37;3.70;;;10.20;99.90;;;;;;5014758;28;20181;-79
2021/05/25 07:01:12;;;;;;;4.50;3.63;;;10.30;99.90;;;;;;5012815;28;20644;-79
2021/05/25 07:03:37;;;;;;;6.40;3.33;;;10.40;99.90;;;;;;5013352;28;20181;-79
2021/05/25 07:06:03;;;;;;;5.70;3.97;;;10.40;99.90;;;;;;5013925;28;20194;-77
2021/05/25 07:08:29;;;;;;;7.43;4.57;;;10.50;99.90;;;;;;5013407;28;20182;-78
2021/05/25 07:10:55;;;;;;;6.57;4.50;;;10.60;99.90;;;;;;5013333;28;20233;-77
2021/05/25 07:13:20;;;;;;;6.53;4.63;;;10.70;99.90;;;;;;5013671;28;20197;-77
2021/05/25 07:15:46;;;;;;;7.80;4.33;;;10.70;99.90;;;;;;5013726;28;20174;-77
2021/05/25 07:18:16;;;;;;;8.13;5.13;;;10.70;99.90;;;;;;5014604;28;20297;-77
2021/05/25 07:20:43;;;;;;;12.10;5.70;;;10.70;99.90;;;;;;5015080;28;20255;-76
2021/05/25 07:23:09;;;;;;;7.67;5.23;;;10.80;99.90;;;;;;5014759;28;20162;-77
2021/05/25 07:25:34;;;;;;;6.13;5.13;;;10.80;99.90;;;;;;5014778;28;20174;-78
2021/05/25 07:28:00;;;;;;;6.33;5.20;;;10.80;99.90;;;;;;5013739;28;20192;-75
2021/05/25 07:30:26;;;;;;;6.70;4.40;;;10.90;99.90;;;;;;5013008;28;20177;-74
2021/05/25 07:32:52;;;;;;;8.00;4.97;;;10.90;99.90;;;;;;5013433;28;20220;-75
2021/05/25 07:35:18;;;;;;;7.13;5.87;;;10.80;99.90;;;;;;5013110;28;20174;-73
2021/05/25 07:37:44;;;;;;;7.37;4.77;;;10.80;99.90;;;;;;5013520;28;20254;-74
2021/05/25 07:40:11;;;;;;;9.33;5.10;;;10.90;99.90;;;;;;5013296;28;20216;-75
2021/05/25 07:42:36;;;;;;;11.17;4.67;;;10.90;99.90;;;;;;5012821;28;20229;-76
2021/05/25 07:45:03;;;;;;;8.07;5.27;;;11.00;99.90;;;;;;5013050;28;20201;-75
2021/05/25 07:47:29;;;;;;;8.17;4.60;;;11.00;99.90;;;;;;5013528;28;20642;-74
2021/05/25 07:49:56;;;;;;;6.57;4.23;;;11.20;99.90;;;;;;5012954;28;20552;-74
2021/05/25 07:52:21;;;;;;;5.43;3.77;;;11.30;99.90;;;;;;5012730;28;20603;-75
2021/05/25 07:54:47;;;;;;;6.67;3.53;;;11.40;99.90;;;;;;5012813;28;20170;-75
2021/05/25 07:57:13;;;;;;;7.00;3.93;;;11.40;98.90;;;;;;5013284;28;20189;-77
2021/05/25 07:59:38;;;;;;;7.17;3.97;;;11.40;98.80;;;;;;5012708;28;20734;-75
2021/05/25 08:02:04;;;;;;;6.20;3.57;;;11.50;99.20;;;;;;5011562;28;20546;-74
2021/05/25 08:04:30;;;;;;;7.93;3.90;;;11.50;97.90;;;;;;5019940;28;20178;-74
2021/05/25 08:06:56;;;;;;;7.93;3.13;;;11.60;98.10;;;;;;5004141;28;20207;-75
2021/05/25 08:09:22;;;;;;;5.43;3.10;;;11.80;96.70;;;;;;5005204;28;20192;-76
2021/05/25 08:11:48;;;;;;;5.73;3.30;;;11.80;96.70;;;;;;5032439;28;20189;-74
2021/05/25 08:14:14;;;;;;;7.63;3.57;;;11.80;96.10;;;;;;5020819;28;20213;-78
2021/05/25 08:16:42;;;;;;;5.07;2.40;;;11.90;95.60;;;;;;5012320;28;20178;-74
2021/05/25 08:19:12;;;;;;;6.60;2.50;;;12.00;93.30;;;;;;5033219;28;20170;-79
2021/05/25 08:21:39;;;;;;;5.30;2.87;;;12.10;92.30;;;;;;5033302;28;20204;-75
2021/05/25 08:24:06;;;;;;;5.80;2.80;;;12.30;92.10;;;;;;5016365;28;20637;-74
2021/05/25 08:26:33;;;;;;;5.47;2.50;;;12.50;92.00;;;;;;5016479;28;20580;-74
2021/05/25 08:28:59;;;;;;;8.20;2.20;;;12.60;90.80;;;;;;5016644;28;20265;-73
2021/05/25 08:31:24;;;;;;;8.80;5.10;;;12.60;89.00;;;;;;5016877;28;20226;-75
2021/05/25 08:33:50;;;;;;;13.27;8.40;;;12.80;89.80;;;;;;5016678;28;20189;-74
2021/05/25 08:36:17;;;;;;;9.67;4.47;;;13.00;88.70;;;;;;5033828;28;20264;-74
2021/05/25 08:38:44;;;;;;;4.80;2.10;;;13.10;81.40;;;;;;5034131;28;20292;-76
2021/05/25 08:41:10;;;;;;;5.40;2.10;;;13.10;83.40;;;;;;5018033;28;20252;-74
2021/05/25 08:43:36;;;;;;;3.73;1.50;;;13.10;79.10;;;;;;5016580;28;20669;-74
2021/05/25 08:46:03;;;;;;;5.93;2.23;;;13.20;71.50;;;;;;5016512;28;20634;-74
2021/05/25 08:48:30;;;;;;;6.90;3.17;;;13.40;71.00;;;;;;5017624;28;20246;-75
2021/05/25 08:51:00;;;;;;;7.23;4.33;;;13.60;63.30;;;;;;5017677;28;20185;-75
2021/05/25 08:53:27;;;;;;;3.70;1.50;;;13.70;65.20;;;;;;5017551;28;20166;-77
2021/05/25 08:55:54;;;;;;;5.13;1.77;;;13.80;55.30;;;;;;5017356;28;20642;-73
2021/05/25 08:58:22;;;;;;;21.70;8.80;;;13.80;53.70;;;;;;5015910;28;20233;-74
2021/05/25 09:00:52;;;;;;;6.47;1.90;;;13.70;58.80;;;;;;5017924;28;20733;-75
2021/05/25 09:03:19;;;;;;;5.97;1.80;;;13.90;57.70;;;;;;5018397;28;20237;-74
2021/05/25 09:05:51;;;;;;;5.50;1.70;;;14.00;57.00;;;;;;5018537;28;20209;-75
2021/05/25 09:08:16;;;;;;;4.37;2.43;;;14.10;54.20;;;;;;5023075;28;20257;-74
2021/05/25 09:10:47;;;;;;;7.73;5.20;;;14.10;50.40;;;;;;5037018;28;20240;-73
2021/05/25 09:13:16;;;;;;;4.50;1.87;;;14.10;48.10;;;;;;5024393;28;20609;-75
2021/05/25 09:15:57;;;;;;;10.53;6.30;;;14.10;50.20;;;;;;5019834;28;20166;-74
2021/05/25 09:18:28;;;;;;;24.50;13.40;;;14.30;50.10;;;;;;5016219;28;20205;-75
2021/05/25 09:20:55;;;;;;;6.27;2.23;;;14.40;52.80;;;;;;5014752;28;20214;-77
2021/05/25 09:23:38;;;;;;;6.50;1.63;;;14.60;47.90;;;;;;5007578;28;20183;-74
2021/05/25 09:26:28;;;;;;;4.80;1.73;;;14.50;41.60;;;;;;4998322;28;20171;-74
2021/05/25 09:29:02;;;;;;;6.63;2.03;;;14.50;43.20;;;;;;4994782;28;20194;-77
2021/05/25 09:31:39;;;;;;;5.77;2.33;;;14.30;48.70;;;;;;4998466;28;20170;-74
2021/05/25 09:34:16;;;;;;;5.23;1.30;;;14.10;52.60;;;;;;5002510;28;20194;-75
2021/05/25 09:37:04;;;;;;;6.93;1.77;;;13.80;54.80;;;;;;4999660;28;20250;-73
2021/05/25 09:39:32;;;;;;;3.77;1.40;;;13.60;60.40;;;;;;5006133;28;20198;-73
2021/05/25 09:42:10;;;;;;;5.90;1.73;;;13.60;65.80;;;;;;5016475;28;20537;-73
2021/05/25 09:44:36;;;;;;;7.63;1.90;;;13.60;62.00;;;;;;5017818;28;20213;-75
2021/05/25 09:47:05;;;;;;;6.30;1.73;;;13.60;63.60;;;;;;5018131;28;20182;-76
2021/05/25 09:49:31;;;;;;;6.20;2.00;;;13.60;63.10;;;;;;5016615;28;20178;-75
2021/05/25 09:52:05;;;;;;;5.07;1.70;;;13.70;62.10;;;;;;5015975;28;20185;-75
2021/05/25 09:54:32;;;;;;;7.97;1.67;;;13.80;57.30;;;;;;5016503;28;20174;-75
2021/05/25 09:57:08;;;;;;;6.73;1.90;;;13.70;55.70;;;;;;5016792;28;20228;-75
2021/05/25 09:59:35;;;;;;;6.20;1.67;;;13.70;52.50;;;;;;5015960;28;20216;-75
2021/05/25 10:02:19;;;;;;;6.50;1.97;;;13.70;49.80;;;;;;5015522;28;20614;-75
2021/05/25 10:05:07;;;;;;;4.70;1.67;;;13.70;50.00;;;;;;5016193;28;20649;-75
2021/05/25 10:07:35;;;;;;;5.43;1.53;;;13.80;49.80;;;;;;5015447;28;20206;-75
2021/05/25 10:10:05;;;;;;;1.83;0.80;;;13.80;54.40;;;;;;5014208;28;20579;-75
2021/05/25 10:12:32;;;;;;;2.43;1.00;;;13.00;52.10;;;;;;5014489;28;20198;-76
2021/05/25 10:14:58;;;;;;;3.60;1.20;;;11.90;78.30;;;;;;5021495;28;20229;-74
2021/05/25 10:20:04;;;;;;;5.43;1.77;;;10.70;97.00;;;;;;5015665;28;20205;-76
2021/05/25 10:22:30;;;;;;;3.10;1.40;;;10.40;98.10;;;;;;5014876;28;20269;-74
2021/05/25 10:24:57;;;;;;;3.53;1.23;;;10.30;97.80;;;;;;5015284;28;20178;-77
2021/05/25 10:27:26;;;;;;;3.30;1.50;;;10.30;94.80;;;;;;5013888;28;20545;-75
2021/05/25 10:29:52;;;;;;;4.67;1.43;;;10.50;96.20;;;;;;5016124;28;20181;-75
2021/05/25 10:32:23;;;;;;;3.97;1.70;;;10.70;96.40;;;;;;5017321;28;20170;-75
2021/05/25 10:34:53;;;;;;;4.10;1.70;;;10.90;95.10;;;;;;5017703;28;20534;-76
2021/05/25 10:37:23;;;;;;;3.30;2.07;;;11.20;89.70;;;;;;5016426;28;20162;-75
2021/05/25 10:39:55;;;;;;;6.67;3.13;;;11.50;85.30;;;;;;5014822;28;20236;-74
2021/05/25 10:42:25;;;;;;;5.93;2.20;;;11.80;85.90;;;;;;5015380;28;20178;-74
2021/05/25 10:44:55;;;;;;;5.40;2.07;;;11.90;87.20;;;;;;5014854;28;20175;-75
2021/05/25 10:47:53;;;;;;;5.87;1.87;;;11.90;84.60;;;;;;5015749;28;20332;-75
2021/05/25 10:53:03;;;;;;;4.43;1.40;;;12.20;76.30;;;;;;5013923;28;20181;-75
2021/05/25 10:55:35;;;;;;;5.57;1.63;;;12.40;79.10;;;;;;5014816;28;20166;-76
2021/05/25 10:58:39;;;;;;;5.03;1.80;;;12.50;79.20;;;;;;5014491;28;20534;-74
2021/05/25 11:01:07;;;;;;;3.83;1.67;;;12.70;82.40;;;;;;5013240;28;20206;-73
2021/05/25 11:03:33;;;;;;;6.20;1.80;;;12.80;82.80;;;;;;5013740;28;20521;-74
2021/05/25 11:06:03;;;;;;;3.67;1.90;;;13.00;87.00;;;;;;5013876;28;20180;-74
2021/05/25 11:08:31;;;;;;;4.63;1.77;;;13.10;90.80;;;;;;5014340;28;20291;-75
2021/05/25 11:11:04;;;;;;;4.03;1.67;;;13.30;79.70;;;;;;5013920;28;20193;-74
2021/05/25 11:13:39;;;;;;;7.60;2.50;;;13.40;81.20;;;;;;5013603;28;20253;-74
2021/05/25 11:16:14;;;;;;;5.97;2.20;;;13.40;83.20;;;;;;5012994;28;20173;-74
2021/05/25 11:24:35;;;;;;;6.83;2.00;;;13.50;77.80;;;;;;5013507;28;20190;-75
2021/05/25 11:27:11;;;;;;;6.27;2.00;;;13.60;80.70;;;;;;5014212;28;20197;-75
2021/05/25 11:30:11;;;;;;;4.83;1.60;;;13.60;77.40;;;;;;5010993;28;20240;-75
2021/05/25 11:32:47;;;;;;;6.90;1.60;;;13.50;59.10;;;;;;5005513;28;20204;-73
2021/05/25 11:35:15;;;;;;;5.30;1.30;;;13.50;54.20;;;;;;5014105;28;20499;-76
2021/05/25 11:37:46;;;;;;;4.00;1.43;;;13.60;40.80;;;;;;5013361;28;20166;-74
2021/05/25 11:40:18;;;;;;;5.73;1.77;;;13.80;35.60;;;;;;5012737;28;20202;-74
2021/05/25 11:42:48;;;;;;;6.17;1.60;;;14.00;23.50;;;;;;5012748;28;20209;-75
2021/05/25 11:45:16;;;;;;;3.43;1.20;;;14.30;29.20;;;;;;5012751;28;20254;-76
2021/05/25 11:47:42;;;;;;;3.50;1.20;;;14.50;32.30;;;;;;5013689;28;20171;-75
2021/05/25 11:50:11;;;;;;;4.07;1.30;;;14.30;11.10;;;;;;5012257;28;20233;-74
2021/05/25 11:52:39;;;;;;;4.83;1.60;;;14.30;17.80;;;;;;5016919;28;20496;-75
2021/05/25 11:55:08;;;;;;;4.40;1.30;;;14.30;16.50;;;;;;5018571;28;20225;-75
2021/05/25 11:57:42;;;;;;;3.23;1.20;;;14.50;9.20;;;;;;5019916;28;20281;-74
2021/05/25 12:00:23;;;;;;;6.03;1.50;;;14.40;1.00;;;;;;5021792;28;20257;-75
2021/05/25 12:02:53;;;;;;;4.00;1.33;;;14.50;7.80;;;;;;5020021;28;20166;-75
2021/05/25 12:05:28;;;;;;;5.17;2.00;;;14.40;4.20;;;;;;5018872;28;20516;-76
2021/05/25 12:08:03;;;;;;;4.07;1.20;;;14.40;3.20;;;;;;5016943;28;20169;-76
2021/05/25 12:10:31;;;;;;;5.77;0.97;;;14.20;14.00;;;;;;5035352;28;20208;-75
2021/05/25 12:13:08;;;;;;;3.30;1.00;;;13.70;10.20;;;;;;5034200;28;20198;-75
2021/05/25 12:15:47;;;;;;;5.87;1.20;;;13.50;12.70;;;;;;5017454;28;20185;-77
2021/05/25 12:18:15;;;;;;;5.23;1.40;;;13.40;19.50;;;;;;5018196;28;20173;-74
2021/05/25 12:20:50;;;;;;;8.17;2.13;;;13.40;20.10;;;;;;5021010;28;20210;-75
2021/05/25 12:23:21;;;;;;;4.63;1.47;;;13.50;21.90;;;;;;5018231;28;20170;-73
2021/05/25 12:25:52;;;;;;;6.40;2.27;;;13.60;20.50;;;;;;5018283;28;20170;-75
2021/05/25 12:28:24;;;;;;;4.07;1.60;;;13.80;22.80;;;;;;5017728;28;20212;-74
2021/05/25 12:30:52;;;;;;;2.53;1.27;;;13.80;26.00;;;;;;5017692;28;20170;-74
2021/05/25 12:33:22;;;;;;;6.20;1.30;;;13.90;18.30;;;;;;5017794;28;20167;-77
2021/05/25 12:35:48;;;;;;;6.17;2.03;;;13.90;26.00;;;;;;5018624;28;20212;-75
2021/05/25 12:38:17;;;;;;;7.20;2.83;;;14.10;29.00;;;;;;5017878;28;20281;-73
2021/05/25 12:40:46;;;;;;;4.93;1.40;;;14.40;28.40;;;;;;5018457;28;20353;-75
2021/05/25 12:43:19;;;;;;;4.73;1.53;;;14.40;24.50;;;;;;5016781;28;20240;-76
2021/05/25 12:45:46;;;;;;;6.20;1.60;;;14.60;28.50;;;;;;5016861;28;20186;-75
2021/05/25 12:48:13;;;;;;;8.27;1.80;;;14.80;24.40;;;;;;5018607;28;20198;-75
2021/05/25 12:50:43;;;;;;;5.43;1.50;;;15.10;22.90;;;;;;5017139;28;20175;-75
2021/05/25 12:53:14;;;;;;;4.67;1.47;;;15.20;11.00;;;;;;5016935;28;20220;-75
2021/05/25 12:55:52;;;;;;;3.53;1.37;;;15.10;7.20;;;;;;5015947;28;20194;-75
2021/05/25 12:58:44;;;;;;;3.63;1.30;;;14.90;1.40;;;;;;5017616;28;20179;-74
2021/05/25 13:01:32;;;;;;;4.23;1.50;;;14.60;20.70;;;;;;5015169;28;20719;-74
2021/05/25 13:04:05;;;;;;;5.23;1.67;;;14.40;7.40;;;;;;5015718;28;20171;-74
2021/05/25 13:06:35;;;;;;;6.17;1.57;;;14.20;17.20;;;;;;5017304;28;20174;-75
2021/05/25 13:12:04;;;;;;;2.13;0.93;;;13.80;52.50;;;;;;5037541;28;20197;-76